Time;durP1;ratioP1;P1;durP2;ratioP2;P2;SDS_P1;SDS_P2;PMS_P1;PMS_P2;Temp;Humidity;BMP_temperature;BMP_pressure;BME280_temperature;BME280_humidity;BME280_pressure;Samples;Min_cycle;Max_cycle;Signal;HPM_P1;HPM_P2
2022/12/25 00:02:00;;;;;;;21.92;5.97;;;;;;;9.28;98.65;101497.75;5059183;28;20456;-53
2022/12/25 00:04:26;;;;;;;19.02;5.65;;;;;;;9.28;98.74;101491.72;5061218;28;20032;-52
2022/12/25 00:06:51;;;;;;;24.30;6.28;;;;;;;9.29;98.61;101483.22;5063579;28;20031;-51
2022/12/25 00:09:17;;;;;;;18.77;5.55;;;;;;;9.25;98.78;101487.34;5063126;28;20021;-52
2022/12/25 00:11:42;;;;;;;28.08;6.20;;;;;;;9.24;98.89;101484.72;5063255;28;20394;-53
2022/12/25 00:14:08;;;;;;;18.48;5.72;;;;;;;9.27;98.95;101479.69;5063442;28;20036;-52
2022/12/25 00:16:33;;;;;;;20.65;5.80;;;;;;;9.27;99.14;101480.56;5060229;28;20060;-50
2022/12/25 00:19:00;;;;;;;22.58;5.50;;;;;;;9.29;99.26;101485.78;5058462;28;20089;-53
2022/12/25 00:21:26;;;;;;;25.42;5.78;;;;;;;9.27;99.38;101484.84;5056938;28;20052;-53
2022/12/25 00:23:56;;;;;;;19.02;5.55;;;;;;;9.31;99.44;101490.16;5063461;28;20041;-53
2022/12/25 00:26:22;;;;;;;19.83;5.03;;;;;;;9.26;99.84;101480.50;5060734;28;20063;-52
2022/12/25 00:28:51;;;;;;;21.92;5.63;;;;;;;9.31;99.88;101486.72;5061968;28;20513;-50
2022/12/25 00:31:16;;;;;;;17.80;5.72;;;;;;;9.30;100.00;101488.41;5063520;28;20082;-50
2022/12/25 00:33:45;;;;;;;24.55;5.50;;;;;;;9.34;100.00;101481.72;5068349;28;20514;-52
2022/12/25 00:36:12;;;;;;;22.70;5.63;;;;;;;9.32;100.00;101483.34;5064661;28;20028;-49
2022/12/25 00:38:39;;;;;;;20.80;6.07;;;;;;;9.31;100.00;101482.47;5068867;28;20400;-53
2022/12/25 00:41:06;;;;;;;21.73;5.35;;;;;;;9.32;100.00;101480.78;5068404;28;20032;-51
2022/12/25 00:43:31;;;;;;;21.65;6.10;;;;;;;9.32;100.00;101483.34;5063221;28;20161;-53
2022/12/25 00:46:02;;;;;;;18.20;5.68;;;;;;;9.34;100.00;101477.47;5064630;28;20115;-49
2022/12/25 00:48:28;;;;;;;20.25;5.35;;;;;;;9.33;100.00;101475.69;5062070;28;20036;-54
2022/12/25 00:51:02;;;;;;;20.48;5.38;;;;;;;9.35;100.00;101465.53;5064019;28;20039;-52
2022/12/25 00:53:29;;;;;;;21.65;5.47;;;;;;;9.33;100.00;101474.81;5065519;28;20027;-53
2022/12/25 00:55:56;;;;;;;21.88;5.43;;;;;;;9.34;100.00;101474.00;5063261;28;20397;-53
2022/12/25 00:58:24;;;;;;;21.27;5.68;;;;;;;9.35;100.00;101470.66;5061690;28;20032;-53
2022/12/25 01:00:49;;;;;;;20.02;5.53;;;;;;;9.39;100.00;101472.53;5064560;28;20480;-53
2022/12/25 01:03:16;;;;;;;22.70;6.00;;;;;;;9.38;100.00;101468.22;5055416;28;20032;-53
2022/12/25 01:05:42;;;;;;;25.98;5.60;;;;;;;9.37;100.00;101466.47;5063674;28;20029;-49
2022/12/25 01:08:07;;;;;;;23.02;5.38;;;;;;;9.39;100.00;101462.25;5053652;28;20416;-53
2022/12/25 01:10:33;;;;;;;24.52;5.90;;;;;;;9.37;100.00;101469.91;5063637;28;20032;-53
2022/12/25 01:12:58;;;;;;;20.98;5.50;;;;;;;9.39;100.00;101467.38;5061477;28;20075;-53
2022/12/25 01:15:24;;;;;;;17.80;5.80;;;;;;;9.42;100.00;101464.09;5063643;28;20093;-49
2022/12/25 01:17:49;;;;;;;20.27;5.28;;;;;;;9.43;100.00;101461.59;5065198;28;20119;-53
2022/12/25 01:20:16;;;;;;;18.63;5.20;;;;;;;9.43;100.00;101461.59;5065589;28;20455;-52
2022/12/25 01:22:42;;;;;;;19.52;5.63;;;;;;;9.46;100.00;101464.25;5059775;28;20463;-53
2022/12/25 01:25:09;;;;;;;20.58;5.20;;;;;;;9.40;100.00;101462.34;5063373;28;20040;-50
2022/12/25 01:27:35;;;;;;;25.00;5.75;;;;;;;9.44;100.00;101463.34;5062702;28;20037;-51
2022/12/25 01:30:00;;;;;;;23.73;5.97;;;;;;;9.44;100.00;101473.59;5064765;28;20029;-53
2022/12/25 01:32:26;;;;;;;20.70;5.50;;;;;;;9.44;100.00;101483.88;5059832;28;20032;-54
2022/12/25 01:34:51;;;;;;;16.55;5.97;;;;;;;9.48;100.00;101483.19;5058747;28;20078;-52
2022/12/25 01:37:16;;;;;;;15.18;5.47;;;;;;;9.46;100.00;101486.50;5057266;28;20037;-47
2022/12/25 01:39:42;;;;;;;26.30;5.82;;;;;;;9.51;100.00;101496.16;5061495;28;20034;-53
2022/12/25 01:42:19;;;;;;;18.73;5.38;;;;;;;9.51;100.00;101485.88;5054068;28;20116;-51
2022/12/25 01:44:44;;;;;;;19.80;6.18;;;;;;;9.46;100.00;101477.09;5057912;28;20032;-53
2022/12/25 01:47:09;;;;;;;15.15;5.78;;;;;;;9.49;100.00;101479.81;5058089;28;20032;-52
2022/12/25 01:49:37;;;;;;;21.40;5.75;;;;;;;9.49;100.00;101478.94;5058934;28;20488;-53
2022/12/25 01:52:14;;;;;;;17.50;4.95;;;;;;;9.51;100.00;101482.44;5060730;28;20040;-53
2022/12/25 01:54:47;;;;;;;14.63;5.00;;;;;;;9.52;100.00;101489.31;5056496;28;20056;-48
2022/12/25 01:57:18;;;;;;;19.20;5.75;;;;;;;9.53;100.00;101485.97;5057981;28;20047;-46
2022/12/25 01:59:44;;;;;;;18.15;5.20;;;;;;;9.51;100.00;101491.00;5060099;28;20476;-53
2022/12/25 02:02:10;;;;;;;18.25;5.47;;;;;;;9.51;100.00;101501.28;5060900;28;20058;-50
2022/12/25 02:04:41;;;;;;;18.90;5.80;;;;;;;9.54;100.00;101504.00;5054456;28;20036;-53
2022/12/25 02:07:19;;;;;;;17.23;5.32;;;;;;;9.54;100.00;101496.28;5064197;28;20393;-53
2022/12/25 02:09:45;;;;;;;19.02;5.72;;;;;;;9.52;100.00;101503.03;5061936;28;20032;-50
2022/12/25 02:12:17;;;;;;;16.30;5.68;;;;;;;9.53;100.00;101499.69;5061785;28;20021;-53
2022/12/25 02:14:43;;;;;;;20.67;5.60;;;;;;;9.51;100.00;101495.28;5055144;28;20024;-50
2022/12/25 02:17:26;;;;;;;15.70;5.95;;;;;;;9.55;100.00;101498.03;5057515;28;20059;-52
2022/12/25 02:20:16;;;;;;;17.10;5.82;;;;;;;9.57;100.00;101508.38;5061589;28;20044;-53
2022/12/25 02:23:04;;;;;;;15.77;5.70;;;;;;;9.59;100.00;101507.63;5062723;28;20044;-50
2022/12/25 02:25:45;;;;;;;18.15;5.50;;;;;;;9.59;100.00;101510.19;5059970;28;20050;-52
2022/12/25 02:29:04;;;;;;;16.83;5.20;;;;;;;9.63;100.00;101508.63;5062387;28;20033;-53
2022/12/25 02:31:42;;;;;;;16.42;5.53;;;;;;;9.59;100.00;101507.63;4999009;28;20081;-53
2022/12/25 02:34:43;;;;;;;20.27;5.85;;;;;;;9.62;100.00;101500.03;5063067;28;20063;-53
2022/12/25 02:37:35;;;;;;;18.33;6.07;;;;;;;9.62;100.00;101494.91;5056469;28;20533;-53
2022/12/25 02:40:14;;;;;;;17.65;5.60;;;;;;;9.58;100.00;101500.72;5059140;28;20108;-52
2022/12/25 03:08:25;;;;;;;15.98;5.60;;;;;;;9.57;100.00;101449.31;5059361;28;20035;-53
2022/12/25 03:13:48;;;;;;;15.70;4.85;;;;;;;9.52;100.00;101427.69;5057194;28;20079;-52
2022/12/25 03:18:58;;;;;;;14.57;4.47;;;;;;;9.54;100.00;101406.44;5060528;28;19961;-53
2022/12/25 03:26:55;;;;;;;10.88;4.47;;;;;;;9.48;100.00;101408.75;5057791;28;20055;-53
2022/12/25 03:32:21;;;;;;;14.68;4.88;;;;;;;9.45;100.00;101400.03;5058959;28;20105;-53
2022/12/25 04:36:41;;;;;;;9.40;3.15;;;;;;;9.30;100.00;101396.03;5063497;28;20447;-45
2022/12/25 04:39:08;;;;;;;8.57;3.00;;;;;;;9.27;100.00;101397.56;5060801;28;20024;-53
2022/12/25 04:41:33;;;;;;;8.60;3.17;;;;;;;9.25;100.00;101394.09;5062214;28;20435;-47
2022/12/25 04:43:58;;;;;;;7.45;2.90;;;;;;;9.26;100.00;101391.56;5062361;28;20027;-53
2022/12/25 04:46:24;;;;;;;10.32;3.28;;;;;;;9.27;100.00;101400.16;5062252;28;20035;-53
2022/12/25 04:48:49;;;;;;;6.93;2.70;;;;;;;9.24;100.00;101394.91;5063009;28;20472;-52
2022/12/25 04:51:21;;;;;;;8.43;3.00;;;;;;;9.28;100.00;101391.63;5061663;28;20086;-53
2022/12/25 04:53:47;;;;;;;8.43;2.80;;;;;;;9.25;100.00;101388.94;5060321;28;20595;-53
2022/12/25 04:56:13;;;;;;;9.73;3.28;;;;;;;9.26;100.00;101390.69;5062540;28;20465;-53
2022/12/25 04:58:39;;;;;;;9.68;2.95;;;;;;;9.24;100.00;101388.06;5063073;28;20095;-52
2022/12/25 05:01:05;;;;;;;8.02;2.70;;;;;;;9.22;100.00;101394.84;5064209;28;20185;-45
2022/12/25 05:03:31;;;;;;;7.70;2.50;;;;;;;9.24;100.00;101384.63;5058906;28;20033;-49
2022/12/25 05:05:57;;;;;;;7.32;2.70;;;;;;;9.21;100.00;101384.50;5060070;28;20041;-53
2022/12/25 05:08:23;;;;;;;10.95;3.10;;;;;;;9.20;100.00;101390.44;5064259;28;20028;-53
2022/12/25 05:10:49;;;;;;;9.20;2.50;;;;;;;9.20;100.00;101390.44;5065318;28;20046;-53
2022/12/25 05:13:14;;;;;;;10.35;2.85;;;;;;;9.17;100.00;101380.94;5063367;28;20111;-53
2022/12/25 05:15:40;;;;;;;7.25;2.75;;;;;;;9.19;100.00;101386.13;5061337;28;20040;-52
2022/12/25 05:18:05;;;;;;;12.07;2.78;;;;;;;9.17;100.00;101368.13;5061880;28;20025;-53
2022/12/25 05:20:31;;;;;;;8.10;2.90;;;;;;;9.19;100.00;101368.16;5062743;28;20080;-50
2022/12/25 05:22:56;;;;;;;12.48;2.50;;;;;;;9.18;100.00;101369.88;5062920;28;20036;-53
2022/12/25 05:25:22;;;;;;;10.15;2.60;;;;;;;9.16;100.00;101373.16;5061326;28;20020;-53
2022/12/25 05:27:47;;;;;;;7.28;2.25;;;;;;;9.17;100.00;101367.25;5060966;28;20052;-45
2022/12/25 05:30:13;;;;;;;8.90;2.40;;;;;;;9.20;100.00;101360.53;5064905;28;20115;-51
2022/12/25 05:32:38;;;;;;;8.63;2.50;;;;;;;9.19;100.00;101358.78;5060386;28;20043;-53
2022/12/25 05:35:04;;;;;;;6.50;2.08;;;;;;;9.22;100.00;101347.75;5060116;28;20025;-54
2022/12/25 05:37:29;;;;;;;6.97;2.47;;;;;;;9.18;100.00;101333.06;5061886;28;20449;-53
2022/12/25 05:39:55;;;;;;;7.88;2.33;;;;;;;9.23;100.00;101345.28;5057956;28;20032;-47
2022/12/25 05:42:20;;;;;;;10.27;2.30;;;;;;;9.22;100.00;101348.66;5060128;28;20049;-49
2022/12/25 05:44:45;;;;;;;7.82;2.38;;;;;;;9.22;100.00;101343.53;5060436;28;20047;-53
2022/12/25 05:47:11;;;;;;;7.43;2.20;;;;;;;9.21;100.00;101344.31;5061506;28;20044;-50
2022/12/25 05:49:36;;;;;;;5.43;1.88;;;;;;;9.21;100.00;101351.13;5062091;28;20063;-54
2022/12/25 05:52:01;;;;;;;6.93;2.03;;;;;;;9.19;100.00;101347.63;5061347;28;20061;-53
2022/12/25 05:54:27;;;;;;;8.00;2.13;;;;;;;9.24;100.00;101359.84;5059325;28;21569;-50
2022/12/25 05:56:52;;;;;;;8.50;2.25;;;;;;;9.23;100.00;101359.78;5060886;28;20054;-50
2022/12/25 05:59:18;;;;;;;6.72;2.10;;;;;;;9.23;100.00;101355.53;5059592;28;20136;-53
2022/12/25 06:01:43;;;;;;;8.60;2.40;;;;;;;9.25;100.00;101350.47;5062993;28;20082;-52
2022/12/25 06:04:08;;;;;;;6.72;2.03;;;;;;;9.27;100.00;101341.13;5059026;28;20013;-53
2022/12/25 06:06:34;;;;;;;12.82;2.35;;;;;;;9.28;100.00;101330.03;5059412;28;20069;-52
2022/12/25 06:08:59;;;;;;;8.63;2.38;;;;;;;9.28;100.00;101323.25;5060274;28;20034;-47
2022/12/25 06:11:24;;;;;;;7.55;2.47;;;;;;;9.30;100.00;101331.88;5058943;28;20116;-53
2022/12/25 06:13:51;;;;;;;6.53;2.15;;;;;;;9.32;100.00;101326.78;5067897;28;20482;-53
2022/12/25 06:16:16;;;;;;;7.00;2.03;;;;;;;9.33;100.00;101331.97;5059095;28;20024;-54
2022/12/25 06:18:46;;;;;;;7.20;1.90;;;;;;;9.38;100.00;101335.63;5063590;28;20077;-54
2022/12/25 06:21:12;;;;;;;;;;;;;;;9.51;100.00;101328.41;5062632;28;20049;-53
2022/12/25 06:23:38;;;;;;;8.52;2.13;;;;;;;9.40;100.00;101316.03;5065879;28;20379;-50
2022/12/25 06:26:09;;;;;;;6.32;2.30;;;;;;;9.40;100.00;101305.78;5062361;28;20021;-53
2022/12/25 06:28:35;;;;;;;7.18;2.10;;;;;;;9.40;100.00;101303.22;5063275;28;20032;-53
2022/12/25 06:31:06;;;;;;;5.70;2.15;;;;;;;9.44;100.00;101303.31;5062615;28;20398;-53
2022/12/25 06:33:32;;;;;;;8.88;2.38;;;;;;;9.42;100.00;101299.81;5062583;28;20452;-53
2022/12/25 06:35:57;;;;;;;6.45;2.05;;;;;;;9.43;100.00;101297.31;5060811;28;20123;-50
2022/12/25 06:38:22;;;;;;;5.63;1.65;;;;;;;9.46;100.00;101291.41;5062242;28;20044;-53
2022/12/25 06:40:48;;;;;;;6.10;1.98;;;;;;;9.46;100.00;101287.13;5061572;28;20040;-53
2022/12/25 06:43:13;;;;;;;4.80;1.85;;;;;;;9.47;100.00;101277.78;5062645;28;20374;-51
2022/12/25 06:45:38;;;;;;;4.90;1.90;;;;;;;9.48;100.00;101272.69;5060295;28;20086;-54
2022/12/25 06:48:04;;;;;;;5.40;1.80;;;;;;;9.48;100.00;101270.13;5054890;28;20072;-53
2022/12/25 06:50:29;;;;;;;4.90;1.90;;;;;;;9.50;100.00;101276.19;5058535;28;20032;-53
2022/12/25 06:52:55;;;;;;;4.20;1.92;;;;;;;9.49;100.00;101277.00;5059162;28;20028;-54
2022/12/25 06:55:20;;;;;;;7.32;2.22;;;;;;;9.53;100.00;101263.47;5056206;28;20466;-53
2022/12/25 06:57:46;;;;;;;9.38;1.90;;;;;;;9.52;100.00;101246.31;5055797;28;20493;-53
2022/12/25 07:00:12;;;;;;;6.85;2.08;;;;;;;9.51;100.00;101233.41;5053997;28;22424;-54
2022/12/25 07:02:37;;;;;;;10.85;2.60;;;;;;;9.53;100.00;101236.94;5062726;28;20085;-51
2022/12/25 07:05:03;;;;;;;8.18;2.08;;;;;;;9.54;100.00;101238.69;5059685;28;20507;-48
2022/12/25 07:07:29;;;;;;;7.20;2.17;;;;;;;9.53;100.00;101249.78;5060038;28;20476;-53
2022/12/25 07:09:54;;;;;;;8.30;2.38;;;;;;;9.51;100.00;101252.25;5059258;28;20020;-53
2022/12/25 07:12:22;;;;;;;7.03;2.10;;;;;;;9.55;100.00;101246.44;5059737;28;20034;-53
2022/12/25 07:14:48;;;;;;;7.78;2.33;;;;;;;9.59;100.00;101255.16;5061289;28;20389;-48
2022/12/25 07:17:18;;;;;;;8.48;2.42;;;;;;;9.56;100.00;101261.03;5059618;28;20031;-53
2022/12/25 07:19:44;;;;;;;;;;;;;;;9.71;100.00;101262.41;5059526;28;20569;-53
2022/12/25 07:22:09;;;;;;;6.15;2.05;;;;;;;9.61;100.00;101264.66;5057712;28;19912;-53
2022/12/25 07:24:35;;;;;;;7.78;1.90;;;;;;;9.61;100.00;101274.91;5060189;28;20039;-48
2022/12/25 07:27:00;;;;;;;7.55;2.03;;;;;;;9.59;100.00;101279.13;5062439;28;20036;-53
2022/12/25 07:29:26;;;;;;;6.03;2.10;;;;;;;9.59;100.00;101294.53;5059083;28;20107;-53
2022/12/25 07:31:51;;;;;;;7.72;2.63;;;;;;;9.59;100.00;101283.38;5057093;28;20040;-53
2022/12/25 07:34:16;;;;;;;6.00;2.10;;;;;;;9.59;100.00;101291.97;5063411;28;20024;-53
2022/12/25 07:36:42;;;;;;;7.95;2.22;;;;;;;9.58;100.00;101286.75;5062100;28;20037;-50
2022/12/25 07:39:09;;;;;;;6.75;2.00;;;;;;;9.57;100.00;101290.13;5062929;28;20412;-53
2022/12/25 07:41:35;;;;;;;4.25;1.90;;;;;;;9.58;100.00;101285.06;5059554;28;20071;-53
2022/12/25 07:44:00;;;;;;;6.68;2.17;;;;;;;9.57;100.00;101269.59;5062020;28;20061;-52
2022/12/25 07:46:27;;;;;;;6.38;2.53;;;;;;;9.59;100.00;101252.59;5060455;28;21188;-53
2022/12/25 07:48:52;;;;;;;8.95;3.17;;;;;;;9.58;100.00;101250.81;5063364;28;20029;-50
2022/12/25 07:51:18;;;;;;;10.25;3.65;;;;;;;9.59;100.00;101253.44;5054572;28;20067;-53
2022/12/25 07:53:43;;;;;;;9.40;3.10;;;;;;;9.58;100.00;101254.25;5059931;28;20485;-54
2022/12/25 07:56:18;;;;;;;6.93;2.97;;;;;;;9.62;100.00;101270.66;5059449;28;20033;-53
2022/12/25 07:58:44;;;;;;;5.68;2.50;;;;;;;9.60;100.00;101286.00;5061083;28;20040;-52
2022/12/25 08:01:16;;;;;;;7.05;2.75;;;;;;;9.59;100.00;101302.22;5060789;28;20036;-52
2022/12/25 08:03:43;;;;;;;8.45;2.83;;;;;;;9.59;100.00;101317.63;5060862;28;20076;-53
2022/12/25 08:06:09;;;;;;;5.90;2.50;;;;;;;9.58;100.00;101309.84;5058868;28;20033;-52
2022/12/25 08:08:36;;;;;;;8.05;2.60;;;;;;;9.58;100.00;101318.44;5065116;28;20489;-53
2022/12/25 08:11:02;;;;;;;5.40;2.40;;;;;;;9.56;100.00;101317.50;5063558;28;20036;-51
2022/12/25 08:13:33;;;;;;;7.97;2.60;;;;;;;9.63;100.00;101308.34;5059108;28;20438;-53
2022/12/25 08:15:59;;;;;;;7.43;2.75;;;;;;;9.62;100.00;101298.91;5061645;28;20025;-48
2022/12/25 08:18:25;;;;;;;6.40;2.63;;;;;;;9.62;100.00;101311.72;5059369;28;20039;-53
2022/12/25 08:20:50;;;;;;;7.90;2.30;;;;;;;9.63;100.00;101327.19;5061554;28;20417;-51
2022/12/25 08:23:16;;;;;;;6.85;2.67;;;;;;;9.59;100.00;101333.03;5066526;28;20033;-46
2022/12/25 08:25:41;;;;;;;9.93;2.83;;;;;;;9.63;100.00;101326.31;5063507;28;20032;-54
2022/12/25 08:28:06;;;;;;;6.47;2.35;;;;;;;9.64;100.00;101323.81;5061813;28;20028;-53
2022/12/25 08:30:32;;;;;;;7.13;2.90;;;;;;;9.63;100.00;101310.91;5062649;28;20056;-50
2022/12/25 08:32:57;;;;;;;7.38;2.75;;;;;;;9.65;100.00;101305.03;5058043;28;20508;-48
2022/12/25 08:35:24;;;;;;;8.02;2.55;;;;;;;9.64;100.00;101328.06;5071795;28;20036;-50
2022/12/25 08:37:50;;;;;;;8.02;2.65;;;;;;;9.61;100.00;101322.81;5066994;28;20032;-50
2022/12/25 08:40:15;;;;;;;8.65;3.10;;;;;;;9.64;100.00;101321.22;5064155;28;20032;-53
2022/12/25 08:42:41;;;;;;;6.25;2.83;;;;;;;9.62;100.00;101329.72;5066793;28;20051;-57
2022/12/25 08:45:07;;;;;;;7.60;2.63;;;;;;;9.60;100.00;101324.53;5064509;28;20033;-52
2022/12/25 08:47:32;;;;;;;7.32;2.67;;;;;;;9.64;100.00;101318.66;5068255;28;20028;-53
2022/12/25 08:49:57;;;;;;;7.75;2.80;;;;;;;9.61;100.00;101323.69;5059021;28;20050;-51
2022/12/25 08:52:23;;;;;;;6.53;2.55;;;;;;;9.66;100.00;101334.16;5067626;28;20032;-52
2022/12/25 08:54:48;;;;;;;7.68;3.00;;;;;;;9.64;100.00;101328.06;5061287;28;20032;-53
2022/12/25 08:57:13;;;;;;;7.13;3.17;;;;;;;9.63;100.00;101323.75;5063091;28;20445;-51
2022/12/25 08:59:39;;;;;;;7.47;2.90;;;;;;;9.62;100.00;101309.16;5064569;28;20557;-53
2022/12/25 09:02:05;;;;;;;7.78;2.88;;;;;;;9.63;100.00;101305.78;5062298;28;20028;-47
2022/12/25 09:04:30;;;;;;;6.90;2.80;;;;;;;9.65;100.00;101311.88;5063394;28;20473;-52
2022/12/25 09:06:55;;;;;;;5.90;2.65;;;;;;;9.68;100.00;101300.00;5062016;28;20033;-51
2022/12/25 09:09:26;;;;;;;9.65;2.78;;;;;;;9.65;100.00;101297.34;5060364;28;20124;-51
2022/12/25 09:11:51;;;;;;;6.65;3.10;;;;;;;9.63;100.00;101298.94;5065534;28;20043;-53
2022/12/25 09:14:16;;;;;;;7.22;3.00;;;;;;;9.66;100.00;101296.50;5061966;28;20473;-53
2022/12/25 09:16:42;;;;;;;9.43;3.35;;;;;;;9.65;100.00;101301.59;5058120;28;20056;-47
2022/12/25 09:19:07;;;;;;;9.07;3.20;;;;;;;9.64;100.00;101308.41;5065917;28;20090;-52
2022/12/25 09:21:32;;;;;;;8.18;3.30;;;;;;;9.65;100.00;101315.31;5063154;28;20109;-45
2022/12/25 09:23:58;;;;;;;6.32;3.00;;;;;;;9.68;100.00;101330.81;5060091;28;20051;-52
2022/12/25 09:26:23;;;;;;;7.72;3.72;;;;;;;9.65;100.00;101323.00;5057204;28;20057;-50
2022/12/25 09:28:49;;;;;;;8.95;3.50;;;;;;;9.65;100.00;101320.44;5061677;28;20397;-52
2022/12/25 09:31:14;;;;;;;8.32;3.17;;;;;;;9.65;100.00;101304.16;5067116;28;20047;-49
2022/12/25 09:33:40;;;;;;;8.25;3.05;;;;;;;9.67;100.00;101298.25;5063170;28;20024;-48
2022/12/25 09:36:07;;;;;;;8.50;3.55;;;;;;;9.66;100.00;101314.50;5062242;28;20028;-48
2022/12/25 09:38:33;;;;;;;7.47;3.58;;;;;;;9.68;100.00;101324.81;5062671;28;20549;-52
2022/12/25 09:41:06;;;;;;;8.35;3.85;;;;;;;9.70;100.00;101312.03;5059077;28;20048;-49
2022/12/25 09:43:39;;;;;;;8.95;3.13;;;;;;;9.69;100.00;101280.34;5059046;28;20028;-50
2022/12/25 09:46:13;;;;;;;7.60;2.95;;;;;;;9.72;100.00;101267.63;5060115;28;20027;-47
2022/12/25 09:48:44;;;;;;;9.60;3.72;;;;;;;9.71;100.00;101289.00;5060296;28;20086;-51
2022/12/25 09:51:13;;;;;;;9.57;3.50;;;;;;;9.73;100.00;101289.03;5062606;28;20024;-51
2022/12/25 09:53:42;;;;;;;;;;;;;;;9.87;100.00;101287.88;5061803;28;20547;-46
2022/12/25 09:56:16;;;;;;;8.02;3.83;;;;;;;9.78;100.00;101282.41;5060357;28;19919;-53
2022/12/25 09:58:42;;;;;;;8.80;3.72;;;;;;;9.71;100.00;101271.03;5062341;28;20047;-50
2022/12/25 10:01:52;;;;;;;10.45;4.13;;;;;;;9.79;100.00;101263.59;5062106;28;20033;-51
2022/12/25 10:04:40;;;;;;;5.80;3.55;;;;;;;9.76;100.00;101266.91;5047760;28;20040;-52
2022/12/25 10:07:22;;;;;;;9.05;4.18;;;;;;;9.72;100.00;101261.63;5058046;28;20039;-49
2022/12/25 10:09:53;;;;;;;7.90;4.30;;;;;;;9.71;100.00;101258.19;5061021;28;20171;-50
2022/12/25 10:12:54;;;;;;;7.65;4.30;;;;;;;9.77;100.00;101255.84;5061480;28;20374;-52
2022/12/25 10:15:32;;;;;;;7.80;3.75;;;;;;;9.76;100.00;101243.78;5061111;28;20090;-49
2022/12/25 10:18:19;;;;;;;8.02;4.00;;;;;;;9.79;100.00;101251.63;5060889;28;20072;-52
2022/12/25 10:20:53;;;;;;;9.07;3.67;;;;;;;9.75;100.00;101241.19;5061583;28;20048;-49
2022/12/25 10:23:26;;;;;;;10.65;3.70;;;;;;;9.74;100.00;101252.28;5057052;28;20044;-46
2022/12/25 10:25:52;;;;;;;8.13;3.70;;;;;;;9.70;100.00;101240.13;5062575;28;20043;-52
2022/12/25 10:28:41;;;;;;;8.57;3.83;;;;;;;9.72;100.00;101228.25;5057055;28;20052;-52
2022/12/25 10:31:20;;;;;;;6.68;3.78;;;;;;;9.75;100.00;101239.47;5060976;28;20497;-49
2022/12/25 10:33:47;;;;;;;9.82;3.50;;;;;;;9.69;100.00;101241.81;5058593;28;20099;-52
2022/12/25 10:36:16;;;;;;;9.13;3.35;;;;;;;9.69;100.00;101241.81;5061978;28;20445;-52
2022/12/25 10:38:42;;;;;;;6.75;3.30;;;;;;;9.67;100.00;101251.16;5060373;28;20031;-48
2022/12/25 10:41:29;;;;;;;7.00;3.45;;;;;;;9.73;100.00;101237.69;5060170;28;20032;-50
2022/12/25 10:43:56;;;;;;;6.97;3.28;;;;;;;9.68;100.00;101246.09;5061132;28;20524;-47
2022/12/25 10:46:25;;;;;;;7.82;3.50;;;;;;;9.68;100.00;101253.78;5063691;28;20032;-53
2022/12/25 10:49:00;;;;;;;7.03;3.40;;;;;;;9.73;100.00;101250.53;5052098;28;20031;-50
2022/12/25 10:51:33;;;;;;;7.88;3.40;;;;;;;9.72;100.00;101236.81;5058531;28;20029;-50
2022/12/25 10:54:00;;;;;;;6.43;3.63;;;;;;;9.73;100.00;101225.72;5058030;28;20037;-49
2022/12/25 10:56:25;;;;;;;7.65;3.42;;;;;;;9.74;100.00;101206.91;5059982;28;21196;-49
2022/12/25 10:59:06;;;;;;;8.55;3.88;;;;;;;9.80;100.00;101209.72;5058799;28;20083;-48
2022/12/25 11:01:32;;;;;;;11.15;3.90;;;;;;;9.75;100.00;101188.13;5055898;28;20032;-50
2022/12/25 11:03:58;;;;;;;8.63;4.05;;;;;;;9.78;100.00;101182.25;5059078;28;20089;-50
2022/12/25 11:06:26;;;;;;;7.55;3.63;;;;;;;9.81;100.00;101200.31;5054858;28;20466;-53
2022/12/25 11:09:00;;;;;;;9.40;4.18;;;;;;;9.82;100.00;101194.34;5062552;28;20056;-51
2022/12/25 11:11:28;;;;;;;7.65;3.95;;;;;;;9.78;100.00;101189.94;5059778;28;20507;-52
2022/12/25 11:13:57;;;;;;;6.60;4.00;;;;;;;9.80;100.00;101185.72;5058562;28;20115;-51
2022/12/25 11:16:30;;;;;;;7.63;4.68;;;;;;;9.78;100.00;101189.94;5060729;28;20032;-49
2022/12/25 11:18:57;;;;;;;9.88;4.85;;;;;;;9.80;100.00;101178.91;5056931;28;20036;-52
2022/12/25 11:21:30;;;;;;;7.70;4.82;;;;;;;9.79;100.00;101178.84;5058258;28;20673;-51
2022/12/25 11:24:05;;;;;;;7.38;4.25;;;;;;;9.81;100.00;101166.91;5059640;28;20036;-52
2022/12/25 11:26:44;;;;;;;8.43;4.63;;;;;;;9.77;100.00;101167.63;5063313;28;20047;-48
2022/12/25 11:29:18;;;;;;;8.55;4.13;;;;;;;9.78;100.00;101154.84;5064417;28;20025;-52
2022/12/25 11:31:45;;;;;;;7.45;4.38;;;;;;;9.75;100.00;101141.03;5067964;28;20504;-51
2022/12/25 11:34:27;;;;;;;9.32;3.90;;;;;;;9.77;100.00;101132.56;5060593;28;20029;-49
2022/12/25 11:36:52;;;;;;;7.55;4.30;;;;;;;9.76;100.00;101132.50;5061342;28;20029;-51
2022/12/25 11:39:28;;;;;;;10.32;4.60;;;;;;;9.79;100.00;101127.47;5061521;28;20431;-52
2022/12/25 11:42:02;;;;;;;8.45;4.50;;;;;;;9.80;100.00;101130.09;5061412;28;20016;-52
2022/12/25 11:44:42;;;;;;;11.60;4.88;;;;;;;9.78;100.00;101126.59;5062845;28;20039;-51
2022/12/25 11:47:43;;;;;;;8.68;4.10;;;;;;;9.79;100.00;101130.91;5061195;28;20523;-50
2022/12/25 11:50:12;;;;;;;5.30;3.72;;;;;;;9.73;100.00;101133.28;5055144;28;20043;-51
2022/12/25 11:52:39;;;;;;;7.53;3.70;;;;;;;9.75;100.00;101130.75;5057562;28;20096;-52
2022/12/25 11:55:30;;;;;;;6.97;3.60;;;;;;;9.79;100.00;101128.34;5056085;28;20033;-51
2022/12/25 11:58:03;;;;;;;12.70;4.00;;;;;;;9.75;100.00;101125.63;5053340;28;20446;-53
2022/12/25 12:00:32;;;;;;;5.05;3.70;;;;;;;9.75;100.00;101113.66;5053948;28;20104;-51
2022/12/25 12:03:02;;;;;;;6.75;3.58;;;;;;;9.74;100.00;101108.47;5058295;28;21060;-52
2022/12/25 12:05:52;;;;;;;6.07;3.92;;;;;;;9.82;100.00;101107.03;5055461;28;20115;-51
2022/12/25 12:08:18;;;;;;;8.73;4.05;;;;;;;9.77;100.00;101109.47;5053194;28;20021;-52
2022/12/25 12:11:14;;;;;;;6.60;4.07;;;;;;;9.76;100.00;101107.69;5053856;28;20054;-50
2022/12/25 12:13:58;;;;;;;7.05;4.40;;;;;;;9.80;100.00;101104.41;5058651;28;20039;-46
2022/12/25 12:16:24;;;;;;;8.80;4.80;;;;;;;9.77;100.00;101109.47;5061459;28;20028;-49
2022/12/25 12:18:49;;;;;;;8.23;4.53;;;;;;;9.76;100.00;101106.81;5062489;28;20396;-49
2022/12/25 12:21:27;;;;;;;8.10;5.43;;;;;;;9.81;100.00;101107.84;5057839;28;20057;-50
2022/12/25 12:24:02;;;;;;;10.00;5.82;;;;;;;9.78;100.00;101115.47;5057740;28;20036;-50
2022/12/25 12:26:35;;;;;;;10.23;5.78;;;;;;;9.81;100.00;101110.41;5061952;28;20047;-53
2022/12/25 12:29:02;;;;;;;7.85;5.88;;;;;;;9.73;100.00;101107.59;5067822;28;20862;-51
2022/12/25 12:31:40;;;;;;;7.95;5.65;;;;;;;9.80;100.00;101103.53;5059816;28;20025;-49
2022/12/25 12:34:15;;;;;;;9.13;5.78;;;;;;;9.80;100.00;101101.84;5056448;28;20032;-52
2022/12/25 12:36:41;;;;;;;9.90;5.70;;;;;;;9.76;100.00;101086.28;5058344;28;20493;-52
2022/12/25 12:39:23;;;;;;;8.60;5.65;;;;;;;9.80;100.00;101068.47;5060053;28;20031;-51
2022/12/25 12:41:49;;;;;;;10.52;5.45;;;;;;;9.80;100.00;101062.44;5057380;28;20495;-50
2022/12/25 12:44:16;;;;;;;8.38;5.65;;;;;;;9.81;100.00;101064.19;5060098;28;20103;-50
2022/12/25 12:47:02;;;;;;;7.90;5.88;;;;;;;9.85;100.00;101066.94;5059679;28;20028;-52
2022/12/25 12:49:33;;;;;;;8.88;6.53;;;;;;;9.83;100.00;101060.00;5060218;28;20058;-52
2022/12/25 12:52:21;;;;;;;8.93;6.30;;;;;;;9.84;100.00;101059.19;5056276;28;20130;-51
2022/12/25 12:54:59;;;;;;;11.15;6.35;;;;;;;9.86;100.00;101063.53;5056363;28;20021;-50
2022/12/25 12:57:28;;;;;;;12.57;6.85;;;;;;;9.84;100.00;101056.59;5058418;28;20135;-52
2022/12/25 12:59:56;;;;;;;9.05;6.50;;;;;;;9.82;100.00;101059.09;5062083;28;20160;-52
2022/12/25 13:02:53;;;;;;;7.28;6.18;;;;;;;9.86;100.00;101060.09;5056225;28;20047;-51
2022/12/25 13:05:40;;;;;;;8.15;6.53;;;;;;;9.88;100.00;101053.31;5061127;28;20147;-52
2022/12/25 13:08:27;;;;;;;9.07;6.70;;;;;;;9.87;100.00;101044.72;5058518;28;20032;-52
2022/12/25 13:11:09;;;;;;;9.93;6.55;;;;;;;9.87;100.00;101041.28;5056129;28;20033;-52
2022/12/25 13:13:38;;;;;;;8.48;7.40;;;;;;;9.84;100.00;101042.06;5054674;28;20017;-52
2022/12/25 13:16:05;;;;;;;9.73;7.35;;;;;;;9.86;100.00;101049.81;5059006;28;20037;-47
2022/12/25 13:18:32;;;;;;;9.63;6.93;;;;;;;9.84;100.00;101042.06;5067010;28;20020;-52